Terminal Aerodrome Forecast
Issued by NWS

Home | Current Version | Previous Version | Text Only | Print | Product List | Glossary On
Versions: 1 2 3 4 5 6 7 8 9 10 11 12 13 14 15 16 17 18 19 20 21 22 23 24 25 26 27 28 29 30 31 32 33 34 35 36 37
000
FTUS44 KFWD 291203 AAA
TAFDAL
TAF AMD
KDAL 291203Z 2912/3012 17005KT P6SM BKN015 BKN130
     FM291500 18010KT P6SM BKN025 BKN130
     FM291800 18014KT P6SM SCT040 BKN130
     FM292000 18014KT P6SM VCTS SCT050CB BKN130
     FM300100 15008KT 5SM SHRA BKN025
     FM300900 15008KT 3SM SHRA OVC010=

USA.gov is the U.S. government's official web portal to all federal, state and local government web resources and services.